Time;durP1;ratioP1;P1;durP2;ratioP2;P2;SDS_P1;SDS_P2;PMS_P1;PMS_P2;Temp;Humidity;BMP_temperature;BMP_pressure;BME280_temperature;BME280_humidity;BME280_pressure;Samples;Min_cycle;Max_cycle;Signal;HPM_P1;HPM_P2
2023/12/22 00:01:35;;;;;;;470.90;170.17;;;;;;;;;;5016615;28;20732;-55
2023/12/22 00:04:02;;;;;;;487.30;174.40;;;;;;;;;;5022173;28;20722;-54
2023/12/22 00:06:28;;;;;;;453.10;162.60;;;;;;;;;;5020845;28;20288;-54
2023/12/22 00:08:53;;;;;;;455.10;166.33;;;;;;;;;;5023659;28;20267;-54
2023/12/22 00:11:19;;;;;;;406.83;148.53;;;;;;;;;;5022601;28;20211;-54
2023/12/22 00:13:45;;;;;;;390.20;149.63;;;;;;;;;;5020199;28;20219;-54
2023/12/22 00:16:12;;;;;;;405.50;149.50;;;;;;;;;;5018337;28;20230;-54
2023/12/22 00:18:38;;;;;;;411.77;152.83;;;;;;;;;;5030549;28;20187;-55
2023/12/22 00:21:04;;;;;;;493.20;181.87;;;;;;;;;;5030684;28;20179;-54
2023/12/22 00:23:32;;;;;;;431.37;158.37;;;;;;;;;;5029000;28;20631;-55
2023/12/22 00:25:58;;;;;;;433.30;162.47;;;;;;;;;;5024277;28;20216;-55
2023/12/22 00:28:24;;;;;;;402.07;148.53;;;;;;;;;;5028112;28;20357;-55
2023/12/22 00:30:50;;;;;;;427.97;159.60;;;;;;;;;;5024326;28;20333;-55
2023/12/22 00:33:16;;;;;;;445.57;169.83;;;;;;;;;;5014240;28;20187;-54
2023/12/22 00:35:42;;;;;;;413.27;150.37;;;;;;;;;;5018060;28;20299;-54
2023/12/22 00:38:08;;;;;;;458.73;169.57;;;;;;;;;;5017826;28;20212;-54
2023/12/22 00:40:34;;;;;;;406.53;143.63;;;;;;;;;;5017874;28;20374;-54
2023/12/22 00:43:00;;;;;;;443.83;166.20;;;;;;;;;;5022922;28;20227;-54
2023/12/22 00:45:26;;;;;;;411.07;148.47;;;;;;;;;;5017215;28;20582;-54
2023/12/22 00:47:52;;;;;;;427.07;157.43;;;;;;;;;;5023889;28;20219;-55
2023/12/22 00:50:18;;;;;;;405.77;146.50;;;;;;;;;;5022002;28;20216;-54
2023/12/22 00:52:44;;;;;;;411.77;152.77;;;;;;;;;;5031382;28;20223;-54
2023/12/22 00:55:10;;;;;;;432.10;160.60;;;;;;;;;;5042167;28;20617;-54
2023/12/22 00:57:36;;;;;;;405.23;147.77;;;;;;;;;;5041575;28;20176;-54
2023/12/22 01:00:04;;;;;;;468.37;174.87;;;;;;;;;;5034939;28;20180;-54
2023/12/22 01:02:30;;;;;;;435.27;156.63;;;;;;;;;;5036505;28;20848;-54
2023/12/22 01:04:56;;;;;;;424.73;150.97;;;;;;;;;;5031640;28;20211;-54
2023/12/22 01:07:22;;;;;;;420.53;154.23;;;;;;;;;;5037012;28;20219;-54
2023/12/22 01:09:48;;;;;;;408.93;151.40;;;;;;;;;;5041542;28;20219;-55
2023/12/22 01:12:14;;;;;;;461.67;170.03;;;;;;;;;;5036799;28;20201;-54
2023/12/22 01:14:40;;;;;;;453.63;166.90;;;;;;;;;;5040693;28;20713;-54
2023/12/22 01:17:06;;;;;;;463.63;171.63;;;;;;;;;;5037204;28;20227;-54
2023/12/22 01:19:33;;;;;;;439.67;162.67;;;;;;;;;;5036772;28;20306;-54
2023/12/22 01:21:59;;;;;;;421.20;156.60;;;;;;;;;;5038064;28;20307;-54
2023/12/22 01:24:25;;;;;;;434.23;162.67;;;;;;;;;;5034639;28;20672;-54
2023/12/22 01:26:51;;;;;;;588.97;232.27;;;;;;;;;;5033535;28;20665;-54
2023/12/22 01:29:17;;;;;;;443.37;165.90;;;;;;;;;;5035567;28;20230;-54
2023/12/22 01:31:43;;;;;;;395.40;146.53;;;;;;;;;;5038052;28;20211;-56
2023/12/22 01:34:09;;;;;;;426.73;155.70;;;;;;;;;;5043717;28;20219;-54
2023/12/22 01:36:36;;;;;;;431.27;157.07;;;;;;;;;;5039662;28;20208;-54
2023/12/22 01:39:02;;;;;;;449.53;166.70;;;;;;;;;;5038487;28;20212;-54
2023/12/22 01:41:28;;;;;;;423.30;155.03;;;;;;;;;;5033895;28;20222;-54
2023/12/22 01:43:54;;;;;;;421.60;154.13;;;;;;;;;;5044869;28;20226;-54
2023/12/22 01:46:21;;;;;;;457.57;167.20;;;;;;;;;;5029278;28;20306;-54
2023/12/22 01:48:47;;;;;;;404.90;146.73;;;;;;;;;;5033542;28;20211;-54
2023/12/22 01:51:13;;;;;;;419.40;151.77;;;;;;;;;;5042210;28;20929;-54
2023/12/22 01:53:39;;;;;;;411.93;150.07;;;;;;;;;;5042682;28;20219;-55
2023/12/22 01:56:05;;;;;;;419.90;157.43;;;;;;;;;;5036371;28;20443;-54
2023/12/22 01:58:33;;;;;;;431.00;159.40;;;;;;;;;;5041071;28;20222;-54
2023/12/22 02:00:59;;;;;;;427.50;157.90;;;;;;;;;;5041811;28;20577;-54
2023/12/22 02:03:25;;;;;;;425.27;157.00;;;;;;;;;;5039790;28;20195;-55
2023/12/22 02:05:51;;;;;;;429.40;157.47;;;;;;;;;;5037124;28;20191;-54
2023/12/22 02:08:22;;;;;;;442.10;163.67;;;;;;;;;;5039558;28;20215;-54
2023/12/22 02:10:48;;;;;;;429.80;156.70;;;;;;;;;;5042516;28;20207;-54
2023/12/22 02:13:14;;;;;;;419.60;152.77;;;;;;;;;;5040159;28;20230;-54
2023/12/22 02:15:40;;;;;;;437.37;160.57;;;;;;;;;;5036509;28;20207;-54
2023/12/22 02:18:15;;;;;;;458.67;168.43;;;;;;;;;;5038703;28;20860;-54
2023/12/22 02:20:43;;;;;;;405.57;146.87;;;;;;;;;;5033075;28;20349;-54
2023/12/22 02:26:17;;;;;;;401.97;145.93;;;;;;;;;;5033640;28;20222;-54
2023/12/22 02:28:45;;;;;;;436.50;159.23;;;;;;;;;;5038232;28;20563;-54
2023/12/22 02:31:17;;;;;;;410.20;148.83;;;;;;;;;;5044269;28;20216;-54
2023/12/22 02:33:44;;;;;;;419.70;156.20;;;;;;;;;;5039517;28;20310;-54
2023/12/22 02:36:12;;;;;;;451.87;167.67;;;;;;;;;;5032308;28;20210;-56
2023/12/22 02:38:38;;;;;;;443.07;167.43;;;;;;;;;;5043335;28;20662;-54
2023/12/22 02:41:05;;;;;;;408.37;150.27;;;;;;;;;;5045742;28;20316;-54
2023/12/22 02:43:31;;;;;;;404.27;146.10;;;;;;;;;;5039162;28;20485;-54
2023/12/22 02:45:57;;;;;;;428.27;155.97;;;;;;;;;;5036720;28;20321;-54
2023/12/22 02:48:23;;;;;;;460.03;168.87;;;;;;;;;;5035086;28;20236;-54
2023/12/22 02:50:49;;;;;;;432.67;154.57;;;;;;;;;;5036359;28;20208;-54
2023/12/22 02:53:15;;;;;;;443.70;163.73;;;;;;;;;;5038557;28;20547;-54
2023/12/22 02:55:41;;;;;;;410.67;151.53;;;;;;;;;;5040332;28;20257;-54
2023/12/22 02:58:07;;;;;;;419.20;155.30;;;;;;;;;;5039894;28;20246;-54
2023/12/22 03:00:33;;;;;;;405.90;150.13;;;;;;;;;;5036876;28;20182;-54
2023/12/22 03:02:59;;;;;;;437.00;167.07;;;;;;;;;;5037285;28;20566;-54
2023/12/22 03:05:25;;;;;;;473.47;173.97;;;;;;;;;;5036110;28;20268;-54
2023/12/22 03:07:51;;;;;;;417.37;150.63;;;;;;;;;;5040778;28;20218;-54
2023/12/22 03:10:17;;;;;;;424.07;155.43;;;;;;;;;;5042641;28;20226;-54
2023/12/22 03:12:43;;;;;;;395.50;146.23;;;;;;;;;;5034754;28;20817;-54
2023/12/22 03:15:09;;;;;;;465.03;180.70;;;;;;;;;;5036443;28;20280;-54
2023/12/22 03:17:35;;;;;;;390.90;146.53;;;;;;;;;;5033553;28;20211;-54
2023/12/22 03:20:01;;;;;;;401.20;149.30;;;;;;;;;;5041314;28;20666;-54
2023/12/22 03:22:27;;;;;;;400.80;149.47;;;;;;;;;;5036137;28;20735;-57
2023/12/22 03:24:53;;;;;;;436.97;163.57;;;;;;;;;;5037110;28;20227;-54
2023/12/22 03:27:20;;;;;;;413.67;154.47;;;;;;;;;;5038191;28;20187;-54
2023/12/22 03:29:46;;;;;;;423.43;157.23;;;;;;;;;;5041231;28;20270;-54
2023/12/22 03:32:12;;;;;;;411.07;153.43;;;;;;;;;;5042415;28;20981;-53
2023/12/22 03:34:38;;;;;;;408.20;151.67;;;;;;;;;;5033899;28;20266;-53
2023/12/22 03:37:04;;;;;;;413.87;153.70;;;;;;;;;;5034947;28;20709;-54
2023/12/22 03:39:29;;;;;;;446.77;169.57;;;;;;;;;;5035295;28;20278;-53
2023/12/22 03:41:55;;;;;;;414.50;152.43;;;;;;;;;;5041872;28;20242;-54
2023/12/22 03:44:21;;;;;;;412.87;151.13;;;;;;;;;;5039720;28;20277;-54
2023/12/22 03:46:47;;;;;;;424.70;160.67;;;;;;;;;;5040715;28;20222;-54
2023/12/22 03:49:13;;;;;;;403.57;154.27;;;;;;;;;;5037071;28;20652;-53
2023/12/22 03:51:41;;;;;;;409.30;154.47;;;;;;;;;;5026600;28;20181;-53
2023/12/22 03:54:07;;;;;;;465.73;181.23;;;;;;;;;;5035168;28;20242;-53
2023/12/22 03:56:33;;;;;;;394.40;144.83;;;;;;;;;;5037076;28;20306;-53
2023/12/22 03:58:59;;;;;;;434.67;167.07;;;;;;;;;;5038960;28;20321;-53
2023/12/22 04:01:25;;;;;;;416.10;154.10;;;;;;;;;;5039163;28;20220;-54
2023/12/22 04:03:51;;;;;;;444.67;169.87;;;;;;;;;;5037005;28;20219;-53
2023/12/22 04:06:17;;;;;;;468.57;178.57;;;;;;;;;;5032298;28;20981;-54
2023/12/22 04:08:43;;;;;;;397.13;146.20;;;;;;;;;;5033396;28;20386;-54
2023/12/22 04:11:09;;;;;;;399.20;146.57;;;;;;;;;;5036887;28;20210;-54
2023/12/22 04:13:35;;;;;;;406.43;151.57;;;;;;;;;;5038274;28;20245;-54
2023/12/22 04:16:04;;;;;;;396.73;149.43;;;;;;;;;;5038299;28;20223;-54
2023/12/22 04:18:30;;;;;;;408.77;155.07;;;;;;;;;;5036267;28;20698;-54
2023/12/22 04:20:56;;;;;;;430.87;164.90;;;;;;;;;;5033681;28;20223;-54
2023/12/22 04:23:22;;;;;;;413.57;153.63;;;;;;;;;;5031525;28;20248;-54
2023/12/22 04:25:48;;;;;;;371.17;158.63;;;;;;;;;;5043027;22;20310;-47
2023/12/22 04:28:14;;;;;;;372.97;165.33;;;;;;;;;;5028170;28;20589;-46
2023/12/22 04:30:40;;;;;;;368.20;158.10;;;;;;;;;;5026449;28;20183;-46
2023/12/22 04:33:06;;;;;;;395.77;173.70;;;;;;;;;;5029392;28;20945;-47
2023/12/22 04:35:32;;;;;;;371.20;159.43;;;;;;;;;;5031403;28;20342;-47
2023/12/22 04:37:58;;;;;;;382.00;163.97;;;;;;;;;;5031513;28;20301;-47
2023/12/22 04:40:24;;;;;;;418.17;190.87;;;;;;;;;;5020806;28;20212;-48
2023/12/22 04:42:50;;;;;;;410.67;182.13;;;;;;;;;;5024735;28;20222;-48
2023/12/22 04:45:17;;;;;;;403.40;182.23;;;;;;;;;;5018137;28;20286;-48
2023/12/22 04:47:43;;;;;;;367.83;153.60;;;;;;;;;;5022942;28;20211;-48
2023/12/22 04:50:09;;;;;;;383.43;166.90;;;;;;;;;;5030375;28;20279;-48
2023/12/22 04:52:35;;;;;;;374.37;161.50;;;;;;;;;;5025316;28;20276;-47
2023/12/22 04:55:01;;;;;;;380.03;163.87;;;;;;;;;;5029142;28;20211;-46
2023/12/22 04:57:27;;;;;;;397.13;173.90;;;;;;;;;;5024945;28;20245;-47
2023/12/22 04:59:53;;;;;;;386.50;168.40;;;;;;;;;;5030636;28;20249;-46
2023/12/22 05:02:19;;;;;;;390.97;172.27;;;;;;;;;;5023541;28;20718;-47
2023/12/22 05:04:45;;;;;;;371.50;159.53;;;;;;;;;;5028376;28;20688;-48
2023/12/22 05:07:10;;;;;;;380.33;162.23;;;;;;;;;;5027881;28;20271;-47
2023/12/22 05:09:36;;;;;;;390.00;174.00;;;4.20;1.00;;;;;;5023554;28;20263;-48
2023/12/22 05:12:02;;;;;;;369.77;157.77;;;;;;;;;;5027205;28;20514;-48
2023/12/22 05:14:28;;;;;;;430.60;187.93;;;;;;;;;;5024648;28;21253;-48
2023/12/22 05:16:56;;;;;;;383.77;162.70;;;;;;;;;;5023684;28;20224;-48
2023/12/22 05:19:22;;;;;;;426.37;193.70;;;;;;;;;;5026796;28;20238;-48
2023/12/22 05:21:49;;;;;;;385.03;163.07;;;;;;;;;;5031399;28;20743;-48
2023/12/22 05:24:15;;;;;;;389.23;170.37;;;;;;;;;;5024812;28;20207;-48
2023/12/22 05:26:41;;;;;;;369.87;156.90;;;;;;;;;;5029946;28;20307;-49
2023/12/22 05:29:08;;;;;;;404.73;174.00;;;;;;;;;;5029218;28;20690;-48
2023/12/22 05:31:34;;;;;;;378.87;163.67;;;;;;;;;;5031056;28;20221;-47
2023/12/22 05:34:00;;;;;;;382.83;161.77;;;;;;;;;;5029961;28;20231;-48
2023/12/22 05:36:26;;;;;;;393.47;170.53;;;;;;;;;;5026119;28;20257;-48
2023/12/22 05:38:52;;;;;;;418.77;183.13;;;;;;;;;;5034181;28;20226;-48
2023/12/22 05:41:18;;;;;;;392.47;167.57;;;;;;;;;;5030757;28;20215;-48
2023/12/22 05:43:44;;;;;;;406.97;173.97;;;;;;;;;;5032787;28;20203;-49
2023/12/22 05:46:10;;;;;;;359.40;151.00;;;;;;;;;;5033834;28;20223;-47
2023/12/22 05:48:37;;;;;;;389.00;169.03;;;;;;;;;;5032307;28;20180;-47
2023/12/22 05:51:03;;;;;;;363.47;152.10;;;;;;;;;;5033481;28;20468;-48
2023/12/22 05:53:29;;;;;;;384.83;162.87;;;;;;;;;;5028517;28;20747;-48
2023/12/22 05:55:55;;;;;;;379.50;160.57;;;;;;;;;;5028800;28;20266;-47
2023/12/22 05:58:21;;;;;;;415.67;182.33;;;;;;;;;;5031104;28;20223;-48
2023/12/22 06:00:47;;;;;;;387.43;161.63;;;;;;;;;;5030487;28;20216;-48
2023/12/22 06:03:14;;;;;;;380.57;155.40;;;;;;;;;;5027257;28;20184;-48
2023/12/22 06:05:40;;;;;;;366.90;150.67;;;;;;;;;;5026922;28;20760;-48
2023/12/22 06:08:06;;;;;;;385.40;163.73;;;;;;;;;;5033011;28;20345;-48
2023/12/22 06:10:32;;;;;;;453.70;200.20;;;;;;;;;;5020348;28;20250;-49
2023/12/22 06:12:58;;;;;;;401.00;170.33;;;;;;;;;;5032135;28;20317;-47
2023/12/22 06:15:24;;;;;;;449.10;193.43;;;3.40;58.60;;;;;;5025146;28;20741;-46
2023/12/22 06:17:50;;;;;;;410.73;174.67;;;;;;;;;;5033984;28;20558;-48
2023/12/22 06:20:16;;;;;;;380.23;158.27;;;;;;;;;;5033322;28;20223;-46
2023/12/22 06:22:42;;;;;;;382.00;161.30;;;3.10;1.00;;;;;;5028380;28;20748;-47
2023/12/22 06:25:09;;;;;;;395.63;161.87;;;3.80;1.00;;;;;;5026762;28;20227;-48
2023/12/22 06:27:34;;;;;;;419.73;184.43;;;3.40;1.00;;;;;;5024117;28;20192;-49
2023/12/22 06:30:00;;;;;;;372.90;156.20;;;3.80;1.00;;;;;;5028920;28;20523;-47
2023/12/22 06:32:26;;;;;;;407.43;178.47;;;4.00;1.00;;;;;;5031110;28;20223;-47
2023/12/22 06:34:51;;;;;;;375.90;158.47;;;3.50;1.00;;;;;;5033099;28;20270;-47
2023/12/22 06:37:17;;;;;;;401.50;171.53;;;3.50;1.00;;;;;;5028499;28;20628;-47
2023/12/22 06:39:42;;;;;;;379.77;161.23;;;3.90;1.00;;;;;;5028556;28;20731;-46
2023/12/22 06:42:10;;;;;;;355.30;150.23;;;4.00;15.10;;;;;;5027191;28;20311;-47
2023/12/22 06:44:37;;;;;;;380.73;167.37;;;3.80;4.10;;;;;;5031673;28;20360;-47
2023/12/22 06:47:02;;;;;;;377.93;164.10;;;3.60;7.00;;;;;;5029169;28;20223;-47
2023/12/22 06:49:28;;;;;;;390.63;170.93;;;3.50;1.00;;;;;;5032078;28;20476;-48
2023/12/22 06:51:53;;;;;;;434.13;193.27;;;4.00;1.00;;;;;;5028912;28;20364;-49
2023/12/22 06:54:19;;;;;;;421.27;183.27;;;3.50;1.00;;;;;;5030204;28;20265;-48
2023/12/22 06:56:45;;;;;;;391.93;163.30;;;4.50;1.00;;;;;;5024788;28;20293;-48
2023/12/22 06:59:11;;;;;;;407.97;174.47;;;;;;;;;;5031847;28;20306;-47
2023/12/22 07:01:37;;;;;;;389.43;164.37;;;3.50;1.00;;;;;;5027444;28;20218;-47
2023/12/22 07:04:04;;;;;;;376.67;157.23;;;3.90;1.00;;;;;;5034791;28;20223;-49
2023/12/22 07:06:32;;;;;;;443.60;193.20;;;4.20;1.00;;;;;;5028329;28;20278;-48
2023/12/22 07:09:16;;;;;;;397.53;168.27;;;3.60;1.00;;;;;;5029180;28;20192;-49
2023/12/22 07:11:52;;;;;;;413.47;174.77;;;3.50;1.00;;;;;;5034741;28;20242;-48
2023/12/22 07:14:18;;;;;;;405.13;171.43;;;3.60;1.00;;;;;;5024956;28;20230;-47
2023/12/22 07:16:44;;;;;;;394.23;166.60;;;4.90;1.00;;;;;;5033204;28;20231;-48
2023/12/22 07:19:12;;;;;;;369.30;156.27;;;3.50;1.00;;;;;;5027310;28;20655;-48
2023/12/22 07:21:38;;;;;;;413.90;180.40;;;;;;;;;;5025263;28;20214;-48
2023/12/22 07:24:04;;;;;;;376.80;155.50;;;;;;;;;;5016881;28;20692;-48
2023/12/22 07:26:30;;;;;;;399.90;168.03;;;3.30;1.00;;;;;;5027788;28;20517;-49
2023/12/22 07:28:56;;;;;;;415.27;172.27;;;3.70;1.00;;;;;;5028827;28;20562;-49
2023/12/22 07:31:22;;;;;;;333.27;139.17;;;;;;;;;;5028113;28;20222;-49
2023/12/22 07:33:48;;;;;;;406.37;163.40;;;;;;;;;;5025337;28;20226;-49
2023/12/22 07:36:14;;;;;;;571.27;290.80;;;;;;;;;;5016169;28;20364;-52
2023/12/22 07:38:40;;;;;;;406.50;177.23;;;;;;;;;;5004016;28;20728;-49
2023/12/22 07:41:06;;;;;;;456.60;206.13;;;;;;;;;;5011100;28;20377;-50
2023/12/22 07:43:32;;;;;;;393.53;165.00;;;;;;;;;;5014101;28;20256;-49
2023/12/22 07:45:58;;;;;;;421.70;179.83;;;;;;;;;;5020242;28;20265;-52
2023/12/22 07:48:24;;;;;;;388.77;163.93;;;;;;;;;;5014603;28;20680;-51
2023/12/22 07:50:50;;;;;;;445.33;192.40;;;;;;;;;;5019600;28;20188;-49
2023/12/22 07:53:16;;;;;;;415.20;178.80;;;;;;;;;;5018705;28;20746;-50
2023/12/22 07:55:43;;;;;;;446.10;202.17;;;3.30;1.00;;;;;;5015712;28;20319;-51
2023/12/22 07:58:10;;;;;;;409.43;172.93;;;;;;;;;;5017329;28;20694;-51
2023/12/22 08:00:36;;;;;;;412.53;179.67;;;0.30;3.50;;;;;;5022655;28;20241;-48
2023/12/22 08:03:02;;;;;;;422.27;185.33;;;3.30;39.70;;;;;;5025649;28;20180;-48
2023/12/22 08:05:29;;;;;;;399.73;168.70;;;;;;;;;;5023135;28;21401;-48
2023/12/22 08:07:55;;;;;;;451.10;196.13;;;;;;;;;;5017918;28;20214;-49
2023/12/22 08:10:21;;;;;;;436.53;188.33;;;;;;;;;;5015320;28;20253;-51
2023/12/22 08:12:47;;;;;;;422.83;183.13;;;;;;;;;;5019264;28;20637;-50
2023/12/22 08:15:13;;;;;;;374.20;157.07;;;;;;;;;;5026255;28;20815;-48
2023/12/22 08:17:49;;;;;;;444.90;200.17;;;3.20;1.00;;;;;;5020138;28;20215;-50
2023/12/22 08:20:19;;;;;;;398.30;167.40;;;3.30;1.00;;;;;;5025466;28;20284;-49
2023/12/22 08:22:45;;;;;;;415.37;176.70;;;;;;;;;;5022671;28;20219;-49
2023/12/22 08:25:11;;;;;;;356.10;147.63;;;;;;;;;;5026332;28;20223;-52
2023/12/22 08:27:37;;;;;;;429.87;180.67;;;;;;;;;;5025093;28;20191;-50
2023/12/22 08:30:03;;;;;;;369.00;151.17;;;;;;;;;;5033860;28;20650;-49
2023/12/22 08:32:29;;;;;;;401.80;174.20;;;;;;;;;;5026086;28;20242;-51
2023/12/22 08:34:55;;;;;;;388.40;164.80;;;;;;;;;;5030632;28;20223;-51
2023/12/22 08:37:21;;;;;;;389.07;165.67;;;;;;;;;;5028764;28;20709;-53
2023/12/22 08:39:47;;;;;;;432.70;192.00;;;;;;;;;;5028098;28;20226;-49
2023/12/22 08:42:13;;;;;;;413.40;179.27;;;;;;;;;;5029343;28;20206;-50
2023/12/22 08:44:39;;;;;;;408.27;175.93;;;;;;;;;;5029160;28;20314;-50
2023/12/22 08:47:05;;;;;;;403.10;170.87;;;;;;;;;;5031261;28;20752;-49
2023/12/22 08:49:31;;;;;;;388.83;162.97;;;;;;;;;;5030481;28;20698;-49
2023/12/22 08:51:57;;;;;;;362.83;147.90;;;;;;;;;;5028349;28;20231;-50
2023/12/22 08:54:23;;;;;;;465.00;203.47;;;;;;;;;;5030309;28;20524;-49
2023/12/22 08:56:48;;;;;;;422.00;183.23;;;;;;;;;;5031659;28;20562;-48
2023/12/22 08:59:14;;;;;;;391.60;161.80;;;;;;;;;;5034519;28;20656;-49
2023/12/22 09:01:41;;;;;;;440.50;187.67;;;;;;;;;;5022140;28;20242;-51
2023/12/22 09:04:07;;;;;;;428.33;182.90;;;;;;;;;;5016109;28;20243;-48
2023/12/22 09:06:33;;;;;;;443.90;188.20;;;;;;;;;;5019908;28;20351;-52
2023/12/22 09:08:59;;;;;;;379.50;154.97;;;;;;;;;;5038023;28;20193;-48
2023/12/22 09:11:25;;;;;;;398.97;169.10;;;;;;;;;;5029579;28;20253;-49
2023/12/22 09:13:51;;;;;;;432.70;183.83;;;;;;;;;;5034407;28;20262;-49
2023/12/22 09:16:24;;;;;;;401.80;169.07;;;4.00;1.00;;;;;;5030668;28;20273;-48
2023/12/22 09:18:51;;;;;;;433.37;186.67;;;;;;;;;;5031577;28;20313;-48
2023/12/22 09:21:20;;;;;;;385.67;159.57;;;;;;;;;;5033567;28;20180;-48
2023/12/22 09:23:46;;;;;;;422.00;175.80;;;;;;;;;;5026143;28;20748;-52
2023/12/22 09:26:15;;;;;;;475.43;214.57;;;4.20;99.90;;;;;;5021724;28;20723;-48
2023/12/22 09:28:42;;;;;;;404.73;171.40;;;4.10;1.00;;;;;;5028449;28;20214;-48
2023/12/22 09:31:08;;;;;;;365.40;148.10;;;4.20;1.00;;;;;;5034256;28;20211;-48
2023/12/22 09:33:34;;;;;;;410.20;174.03;;;;;;;;;;5028805;28;20206;-49
2023/12/22 09:36:00;;;;;;;415.73;176.80;;;;;;;;;;5037139;28;20204;-51
2023/12/22 09:38:27;;;;;;;424.37;185.23;;;;;;;;;;5030452;28;20218;-49
2023/12/22 09:40:53;;;;;;;427.23;183.20;;;;;;;;;;5028699;28;20647;-49
2023/12/22 09:43:20;;;;;;;407.13;172.27;;;4.00;80.40;;;;;;5029859;28;20320;-49
2023/12/22 09:45:46;;;;;;;423.60;180.30;;;4.20;99.90;;;;;;5034284;28;20227;-52
2023/12/22 09:48:17;;;;;;;372.07;153.97;;;4.10;99.90;;;;;;5029589;28;20266;-47
2023/12/22 09:50:43;;;;;;;349.73;144.47;;;;;;;;;;5033821;28;20310;-49
2023/12/22 09:53:10;;;;;;;389.37;162.73;;;;;;;;;;5033082;28;20215;-50
2023/12/22 09:55:38;;;;;;;404.73;170.30;;;3.60;1.00;;;;;;5033602;28;20497;-48
2023/12/22 09:58:05;;;;;;;408.13;168.47;;;4.10;40.70;;;;;;5035054;28;20287;-48
2023/12/22 10:00:32;;;;;;;398.93;167.87;;;4.10;1.00;;;;;;5034729;28;20210;-47
2023/12/22 10:02:58;;;;;;;494.13;225.50;;;;;;;;;;5017528;28;20241;-52
2023/12/22 10:05:24;;;;;;;429.27;184.07;;;;;;;;;;5014460;28;20658;-49
2023/12/22 10:07:51;;;;;;;415.80;177.60;;;;;;;;;;5014265;28;20261;-48
2023/12/22 10:10:17;;;;;;;430.50;184.80;;;4.30;1.00;;;;;;5018904;28;20522;-51
2023/12/22 10:12:45;;;;;;;425.13;178.20;;;4.20;1.00;;;;;;5022773;28;20223;-52
2023/12/22 10:15:12;;;;;;;503.40;222.07;;;4.30;99.90;;;;;;5016356;28;20212;-49
2023/12/22 10:17:39;;;;;;;422.73;176.50;;;4.40;99.90;;;;;;5017636;28;20266;-48
2023/12/22 10:20:06;;;;;;;438.40;185.20;;;;;;;;;;5021402;28;20228;-49
2023/12/22 10:22:32;;;;;;;448.43;191.20;;;;;;;;;;5018830;28;20224;-48
2023/12/22 10:24:57;;;;;;;391.80;147.00;;;;;;;;;;5039601;23;20621;-49
2023/12/22 10:27:23;;;;;;;377.80;140.57;;;4.70;1.00;;;;;;5027428;28;20538;-49
2023/12/22 10:29:50;;;;;;;388.80;143.50;;;;;;;;;;5029235;28;20425;-49
2023/12/22 10:32:16;;;;;;;375.23;138.73;;;;;;;;;;5028160;28;20227;-50
2023/12/22 10:34:43;;;;;;;383.27;141.73;;;;;;;;;;5028230;28;20212;-49
2023/12/22 10:37:12;;;;;;;373.33;136.93;;;;;;;;;;5028144;28;20235;-50
2023/12/22 10:39:39;;;;;;;377.70;139.77;;;;;;;;;;5028173;28;20464;-49
2023/12/22 10:42:05;;;;;;;363.87;135.13;;;;;;;;;;5028705;28;20516;-50
2023/12/22 10:44:31;;;;;;;367.43;134.53;;;;;;;;;;5028289;28;20232;-49
2023/12/22 10:46:58;;;;;;;385.00;142.33;;;;;;;;;;5027951;28;20223;-49
2023/12/22 10:49:24;;;;;;;366.70;134.60;;;;;;;;;;5028131;28;20212;-49
2023/12/22 10:51:51;;;;;;;396.00;145.03;;;;;;;;;;5027807;28;20653;-49
2023/12/22 10:54:17;;;;;;;373.50;136.07;;;;;;;;;;5028595;28;20195;-50
2023/12/22 10:56:43;;;;;;;368.77;134.50;;;;;;;;;;5027854;28;20443;-49
2023/12/22 10:59:10;;;;;;;374.20;139.47;;;;;;;;;;5028243;28;20423;-49
2023/12/22 11:01:38;;;;;;;361.30;132.67;;;;;;;;;;5027552;28;20476;-49
2023/12/22 11:04:06;;;;;;;357.13;131.07;;;;;;;;;;5027040;28;20220;-50
2023/12/22 11:06:34;;;;;;;156.13;27.87;;;;;;;;;;5028323;28;20180;-49
2023/12/22 11:09:01;;;;;;;161.83;26.97;;;;;;;;;;5028610;28;20291;-49
2023/12/22 11:11:29;;;;;;;170.70;30.03;;;;;;;;;;5027634;28;20539;-48
2023/12/22 11:13:57;;;;;;;193.97;35.70;;;;;;;;;;5027926;28;20216;-49
2023/12/22 11:16:25;;;;;;;175.80;30.07;;;;;;;;;;5027553;28;20337;-49
2023/12/22 11:18:54;;;;;;;160.50;25.23;;;;;;;;;;5028121;28;20726;-49
2023/12/22 11:21:22;;;;;;;169.07;29.20;;;;;;;;;;5028178;28;20184;-49
2023/12/22 11:23:50;;;;;;;161.87;27.27;;;;;;;;;;5025971;28;20207;-49
2023/12/22 11:26:17;;;;;;;144.07;23.97;;;;;;;;;;5008160;28;20225;-49
2023/12/22 11:28:45;;;;;;;207.97;36.73;;;5.20;99.90;;;;;;5007611;28;20239;-49
2023/12/22 11:31:12;;;;;;;213.37;38.00;;;;;;;;;;5007458;28;20224;-50
2023/12/22 11:33:40;;;;;;;201.23;33.50;;;;;;;;;;5007724;28;20173;-50
2023/12/22 11:36:07;;;;;;;139.07;25.37;;;;;;;;;;5007741;28;20303;-50
2023/12/22 11:38:33;;;;;;;161.17;28.67;;;;;;;;;;5007368;28;20220;-50
2023/12/22 11:41:01;;;;;;;192.10;33.57;;;;;;;;;;5007504;28;20579;-50
2023/12/22 11:43:27;;;;;;;169.63;28.80;;;;;;;;;;5007224;28;20223;-51
2023/12/22 11:45:53;;;;;;;207.00;34.67;;;;;;;;;;5007138;28;20282;-50
2023/12/22 11:48:20;;;;;;;179.47;31.40;;;;;;;;;;5007637;28;20173;-51
2023/12/22 11:50:46;;;;;;;216.70;41.13;;;;;;;;;;5006904;28;20711;-50
2023/12/22 11:53:22;;;;;;;170.67;44.03;;;5.60;1.00;;;;;;5007105;28;20591;-51
2023/12/22 11:56:07;;;;;;;208.93;47.60;;;5.80;99.90;;;;;;5007035;28;20216;-49
2023/12/22 11:58:42;;;;;;;160.30;47.00;;;;;;;;;;5007450;28;20304;-50
2023/12/22 12:01:10;;;;;;;177.70;59.43;;;;;;;;;;5007149;28;20223;-50
2023/12/22 12:03:43;;;;;;;191.93;63.77;;;;;;;;;;5007191;28;20173;-49
2023/12/22 12:06:15;;;;;;;227.03;64.07;;;;;;;;;;5027221;28;20196;-49
2023/12/22 12:08:41;;;;;;;232.63;72.30;;;;;;;;;;5016597;28;20221;-49
2023/12/22 12:11:07;;;;;;;219.57;65.83;;;;;;;;;;5006790;28;20229;-49
2023/12/22 12:13:34;;;;;;;198.93;55.27;;;;;;;;;;5006738;28;20314;-49
2023/12/22 12:16:01;;;;;;;186.33;62.43;;;;;;;;;;5006993;28;20578;-49
2023/12/22 12:18:28;;;;;;;238.80;76.33;;;;;;;;;;5006824;28;20191;-49
2023/12/22 12:20:54;;;;;;;222.30;79.33;;;;;;;;;;5007327;28;20177;-50
2023/12/22 12:23:21;;;;;;;245.77;83.27;;;;;;;;;;5006951;28;20271;-49
2023/12/22 12:25:48;;;;;;;239.13;76.47;;;;;;;;;;5006410;28;20228;-49
2023/12/22 12:28:16;;;;;;;252.80;76.23;;;;;;;;;;5004972;28;20227;-49
2023/12/22 12:30:42;;;;;;;228.33;81.97;;;;;;;;;;5014349;28;20630;-49
2023/12/22 12:33:12;;;;;;;197.83;79.23;;;5.70;99.90;;;;;;5026648;28;20263;-49
2023/12/22 12:35:39;;;;;;;230.03;91.33;;;5.90;99.90;;;;;;5027709;28;20555;-49
2023/12/22 12:38:05;;;;;;;207.47;84.07;;;;;;;;;;5027898;28;20223;-49
2023/12/22 12:40:33;;;;;;;190.00;72.00;;;;;;;;;;5027895;28;20651;-49
2023/12/22 12:43:00;;;;;;;203.17;73.30;;;;;;;;;;5027839;28;20238;-49
2023/12/22 12:45:26;;;;;;;186.53;54.03;;;;;;;;;;5027418;28;20200;-49
2023/12/22 12:47:59;;;;;;;193.67;67.70;;;5.90;99.90;;;;;;5028075;28;20191;-49
2023/12/22 12:50:26;;;;;;;204.23;79.23;;;6.40;99.90;;;;;;5027552;28;20215;-50
2023/12/22 12:52:55;;;;;;;228.17;87.33;;;5.80;99.90;;;;;;5027515;28;20216;-49
2023/12/22 12:55:22;;;;;;;231.93;90.13;;;5.60;99.90;;;;;;5027309;28;20234;-50
2023/12/22 12:57:50;;;;;;;235.50;88.43;;;5.60;99.90;;;;;;5027529;28;20257;-49
2023/12/22 13:00:37;;;;;;;216.90;85.70;;;5.60;1.00;;;;;;5028004;28;20180;-49
2023/12/22 13:03:04;;;;;;;240.10;83.87;;;;;;;;;;5026677;28;20207;-49
2023/12/22 13:05:31;;;;;;;224.60;84.80;;;5.50;99.90;;;;;;5027359;28;20255;-50
2023/12/22 13:08:13;;;;;;;242.00;91.47;;;5.60;99.90;;;;;;5027055;28;20220;-50
2023/12/22 13:10:40;;;;;;;263.97;98.47;;;;;;;;;;5026978;28;20702;-48
2023/12/22 13:13:06;;;;;;;199.47;69.37;;;;;;;;;;5027082;28;20628;-49
2023/12/22 13:15:32;;;;;;;245.83;95.37;;;;;;;;;;5027432;28;20782;-49
2023/12/22 13:17:58;;;;;;;256.77;100.60;;;;;;;;;;5028012;28;20211;-49
2023/12/22 13:20:25;;;;;;;241.03;93.93;;;;;;;;;;5027086;28;20220;-49
2023/12/22 13:22:51;;;;;;;240.20;97.63;;;;;;;;;;5027209;28;20920;-50
2023/12/22 13:25:17;;;;;;;201.63;76.77;;;;;;;;;;5027127;28;20648;-50
2023/12/22 13:27:49;;;;;;;241.17;97.03;;;;;;;;;;5027271;28;21352;-50
2023/12/22 13:30:35;;;;;;;222.70;76.77;;;;;;;;;;5027752;28;20260;-48
2023/12/22 13:33:01;;;;;;;259.20;101.87;;;;;;;;;;5027247;28;20262;-50
2023/12/22 13:35:28;;;;;;;183.87;62.20;;;;;;;;;;5026854;28;20246;-50
2023/12/22 13:37:54;;;;;;;262.80;100.03;;;;;;;;;;5027167;28;20208;-47